HAAB/ADD METAR and TAF weather

Enter ICAO airport designator
Station Type Date Time Source
HAAB METAR 2020/04/04 21:00 UTC NOAA

HAAB 042100Z 19003KT 9999 FEW025 17/09 Q1027


Station Type Date Time Source
HAAB Decoded METAR 2020/04/04 21:00 UTC NOAA

Addis Ababa, Ethiopia (HAAB) 08-59N 038-48E 2324M
Apr 04, 2020 - 05:00 PM EDT / 2020.04.04 2100 UTC
Wind: from the S (190 degrees) at 3 MPH (3 KT):0
Visibility: greater than 7 mile(s):0
Sky conditions: mostly clear
Temperature: 62 F (17 C)
Dew Point: 48 F (9 C)
Relative Humidity: 59%
Pressure (altimeter): 30.33 in. Hg (1027 hPa)
ob: HAAB 042100Z 19003KT 9999 FEW025 17/09 Q1027
cycle: 21

Station Type Date Time Source
HAAB TAF 2020/04/04 18:56 UTC NOAA

TAF HAAB 041530Z 0418/0524 050V07007KT 9999 FEW030 FEW100
BECMG 0501/0503 02004KT

Example: see airport list